sensor_id;sensor_type;location;lat;lon;timestamp;temperature;humidity
37086;DHT22;23001;45.952;12.676;2023-08-21T04:39:58;24.30;99.90
37086;DHT22;23001;45.952;12.676;2023-08-21T04:59:34;24.50;99.90
37086;DHT22;23001;45.952;12.676;2023-08-21T05:06:13;24.50;99.90
37086;DHT22;23001;45.952;12.676;2023-08-21T05:11:31;24.50;99.90
37086;DHT22;23001;45.952;12.676;2023-08-21T05:17:21;24.60;99.90
37086;DHT22;23001;45.952;12.676;2023-08-21T05:19:49;24.70;99.90
37086;DHT22;23001;45.952;12.676;2023-08-21T05:28:38;24.70;99.90
37086;DHT22;23001;45.952;12.676;2023-08-21T05:31:20;24.70;99.90
37086;DHT22;23001;45.952;12.676;2023-08-21T05:34:04;24.70;99.90
37086;DHT22;23001;45.952;12.676;2023-08-21T05:52:21;25.00;99.90
37086;DHT22;23001;45.952;12.676;2023-08-21T05:54:48;25.10;99.90
37086;DHT22;23001;45.952;12.676;2023-08-21T05:57:16;25.40;99.90
37086;DHT22;23001;45.952;12.676;2023-08-21T05:59:46;25.70;99.90
37086;DHT22;23001;45.952;12.676;2023-08-21T06:02:17;25.90;99.90
37086;DHT22;23001;45.952;12.676;2023-08-21T07:09:50;30.70;99.90
37086;DHT22;23001;45.952;12.676;2023-08-21T07:33:11;31.20;99.90
37086;DHT22;23001;45.952;12.676;2023-08-21T07:35:48;31.30;99.90
37086;DHT22;23001;45.952;12.676;2023-08-21T08:03:49;31.60;99.90
37086;DHT22;23001;45.952;12.676;2023-08-21T08:17:49;31.80;98.30
37086;DHT22;23001;45.952;12.676;2023-08-21T08:21:00;31.80;99.00
37086;DHT22;23001;45.952;12.676;2023-08-21T08:23:49;32.00;98.80
37086;DHT22;23001;45.952;12.676;2023-08-21T08:26:15;31.70;98.60
37086;DHT22;23001;45.952;12.676;2023-08-21T08:39:34;32.00;99.90
37086;DHT22;23001;45.952;12.676;2023-08-21T08:42:05;32.00;99.50
37086;DHT22;23001;45.952;12.676;2023-08-21T08:44:36;32.00;99.10
37086;DHT22;23001;45.952;12.676;2023-08-21T08:57:45;32.10;99.10
37086;DHT22;23001;45.952;12.676;2023-08-21T09:07:28;32.30;99.40
37086;DHT22;23001;45.952;12.676;2023-08-21T09:51:08;32.60;97.10
37086;DHT22;23001;45.952;12.676;2023-08-21T09:57:34;32.80;96.00
37086;DHT22;23001;45.952;12.676;2023-08-21T10:07:06;32.90;97.10
37086;DHT22;23001;45.952;12.676;2023-08-21T10:09:47;33.00;96.10
37086;DHT22;23001;45.952;12.676;2023-08-21T10:26:28;33.10;96.90
37086;DHT22;23001;45.952;12.676;2023-08-21T10:33:07;33.20;96.50
37086;DHT22;23001;45.952;12.676;2023-08-21T10:57:49;33.40;94.50
37086;DHT22;23001;45.952;12.676;2023-08-21T11:04:07;33.60;95.20
37086;DHT22;23001;45.952;12.676;2023-08-21T11:07:07;33.60;95.90
37086;DHT22;23001;45.952;12.676;2023-08-21T11:09:51;33.50;95.30
37086;DHT22;23001;45.952;12.676;2023-08-21T11:12:49;33.60;94.90
37086;DHT22;23001;45.952;12.676;2023-08-21T11:15:32;33.60;95.90
37086;DHT22;23001;45.952;12.676;2023-08-21T11:22:02;33.70;96.20
37086;DHT22;23001;45.952;12.676;2023-08-21T11:25:09;33.70;94.80
37086;DHT22;23001;45.952;12.676;2023-08-21T11:27:42;33.70;94.80
37086;DHT22;23001;45.952;12.676;2023-08-21T11:30:32;33.80;95.70
37086;DHT22;23001;45.952;12.676;2023-08-21T11:37:09;33.90;96.30
37086;DHT22;23001;45.952;12.676;2023-08-21T11:43:39;33.70;95.30
37086;DHT22;23001;45.952;12.676;2023-08-21T11:46:12;33.90;95.30
37086;DHT22;23001;45.952;12.676;2023-08-21T11:59:04;33.90;95.70
37086;DHT22;23001;45.952;12.676;2023-08-21T12:01:42;33.80;95.90
37086;DHT22;23001;45.952;12.676;2023-08-21T12:04:17;33.70;95.10
37086;DHT22;23001;45.952;12.676;2023-08-21T12:06:46;33.90;95.80
37086;DHT22;23001;45.952;12.676;2023-08-21T12:09:35;34.00;95.00
37086;DHT22;23001;45.952;12.676;2023-08-21T12:12:20;34.00;94.80
37086;DHT22;23001;45.952;12.676;2023-08-21T12:18:09;34.00;94.80
37086;DHT22;23001;45.952;12.676;2023-08-21T12:20:47;34.00;94.80
37086;DHT22;23001;45.952;12.676;2023-08-21T12:24:19;34.00;94.80
37086;DHT22;23001;45.952;12.676;2023-08-21T12:27:01;34.10;94.50
37086;DHT22;23001;45.952;12.676;2023-08-21T12:29:42;34.20;95.20
37086;DHT22;23001;45.952;12.676;2023-08-21T12:32:08;33.90;93.70
37086;DHT22;23001;45.952;12.676;2023-08-21T12:34:34;33.90;94.40
37086;DHT22;23001;45.952;12.676;2023-08-21T12:37:00;33.90;94.30
37086;DHT22;23001;45.952;12.676;2023-08-21T12:39:25;34.10;95.10
37086;DHT22;23001;45.952;12.676;2023-08-21T12:41:54;34.00;94.90
37086;DHT22;23001;45.952;12.676;2023-08-21T12:44:33;34.10;94.20
37086;DHT22;23001;45.952;12.676;2023-08-21T12:46:59;34.30;94.50
37086;DHT22;23001;45.952;12.676;2023-08-21T12:49:26;34.20;94.20
37086;DHT22;23001;45.952;12.676;2023-08-21T12:51:51;34.20;94.20
37086;DHT22;23001;45.952;12.676;2023-08-21T12:54:20;34.20;93.10
37086;DHT22;23001;45.952;12.676;2023-08-21T12:56:52;34.20;94.60
37086;DHT22;23001;45.952;12.676;2023-08-21T12:59:22;34.10;94.20
37086;DHT22;23001;45.952;12.676;2023-08-21T13:02:16;34.10;94.00
37086;DHT22;23001;45.952;12.676;2023-08-21T13:05:04;34.20;95.00
37086;DHT22;23001;45.952;12.676;2023-08-21T13:07:35;34.20;93.90
37086;DHT22;23001;45.952;12.676;2023-08-21T13:10:03;34.20;94.30
37086;DHT22;23001;45.952;12.676;2023-08-21T13:12:29;34.10;93.90
37086;DHT22;23001;45.952;12.676;2023-08-21T13:14:55;34.20;94.30
37086;DHT22;23001;45.952;12.676;2023-08-21T13:17:24;34.10;93.80
37086;DHT22;23001;45.952;12.676;2023-08-21T13:19:53;34.10;95.60
37086;DHT22;23001;45.952;12.676;2023-08-21T13:22:18;34.10;94.70
37086;DHT22;23001;45.952;12.676;2023-08-21T13:24:44;34.10;93.80
37086;DHT22;23001;45.952;12.676;2023-08-21T13:27:13;34.10;94.50
37086;DHT22;23001;45.952;12.676;2023-08-21T13:29:39;34.10;94.60
37086;DHT22;23001;45.952;12.676;2023-08-21T13:32:09;34.20;94.30
37086;DHT22;23001;45.952;12.676;2023-08-21T13:34:35;34.20;94.90
37086;DHT22;23001;45.952;12.676;2023-08-21T13:37:01;34.40;95.10
37086;DHT22;23001;45.952;12.676;2023-08-21T13:39:28;34.30;94.20
37086;DHT22;23001;45.952;12.676;2023-08-21T13:41:54;34.30;95.10
37086;DHT22;23001;45.952;12.676;2023-08-21T13:44:20;34.20;94.60
37086;DHT22;23001;45.952;12.676;2023-08-21T13:46:52;34.20;95.00
37086;DHT22;23001;45.952;12.676;2023-08-21T13:49:18;34.30;93.90
37086;DHT22;23001;45.952;12.676;2023-08-21T13:51:44;34.20;95.00
37086;DHT22;23001;45.952;12.676;2023-08-21T13:54:39;34.20;94.50
37086;DHT22;23001;45.952;12.676;2023-08-21T13:58:17;34.30;95.10
37086;DHT22;23001;45.952;12.676;2023-08-21T14:00:34;34.20;94.40
37086;DHT22;23001;45.952;12.676;2023-08-21T14:03:22;34.30;94.70
37086;DHT22;23001;45.952;12.676;2023-08-21T14:09:04;34.20;94.70
37086;DHT22;23001;45.952;12.676;2023-08-21T14:11:31;34.20;94.90
37086;DHT22;23001;45.952;12.676;2023-08-21T14:13:57;34.20;94.60
37086;DHT22;23001;45.952;12.676;2023-08-21T14:16:23;34.20;93.80
37086;DHT22;23001;45.952;12.676;2023-08-21T14:18:54;34.20;94.10
37086;DHT22;23001;45.952;12.676;2023-08-21T14:21:35;34.30;94.60
37086;DHT22;23001;45.952;12.676;2023-08-21T14:24:02;34.30;94.30
37086;DHT22;23001;45.952;12.676;2023-08-21T14:26:45;34.30;94.20
37086;DHT22;23001;45.952;12.676;2023-08-21T14:29:42;34.10;94.70
37086;DHT22;23001;45.952;12.676;2023-08-21T14:32:09;34.30;94.20
37086;DHT22;23001;45.952;12.676;2023-08-21T14:38:38;34.30;94.70
37086;DHT22;23001;45.952;12.676;2023-08-21T14:41:04;34.30;94.20
37086;DHT22;23001;45.952;12.676;2023-08-21T14:43:30;34.20;94.10
37086;DHT22;23001;45.952;12.676;2023-08-21T14:46:02;34.30;94.20
37086;DHT22;23001;45.952;12.676;2023-08-21T14:48:29;34.30;94.10
37086;DHT22;23001;45.952;12.676;2023-08-21T14:51:04;34.30;93.80
37086;DHT22;23001;45.952;12.676;2023-08-21T14:53:30;34.40;93.90
37086;DHT22;23001;45.952;12.676;2023-08-21T14:55:56;34.30;94.40
37086;DHT22;23001;45.952;12.676;2023-08-21T14:58:23;34.40;94.10
37086;DHT22;23001;45.952;12.676;2023-08-21T15:00:53;34.30;94.00
37086;DHT22;23001;45.952;12.676;2023-08-21T15:03:23;34.30;94.50
37086;DHT22;23001;45.952;12.676;2023-08-21T15:05:52;34.30;94.50
37086;DHT22;23001;45.952;12.676;2023-08-21T15:08:20;34.20;93.60
37086;DHT22;23001;45.952;12.676;2023-08-21T15:10:45;34.20;94.00
37086;DHT22;23001;45.952;12.676;2023-08-21T15:13:11;34.10;94.00
37086;DHT22;23001;45.952;12.676;2023-08-21T15:15:37;34.20;93.50
37086;DHT22;23001;45.952;12.676;2023-08-21T15:18:06;34.20;94.20
37086;DHT22;23001;45.952;12.676;2023-08-21T15:20:36;34.20;93.80
37086;DHT22;23001;45.952;12.676;2023-08-21T15:23:39;34.10;93.80
37086;DHT22;23001;45.952;12.676;2023-08-21T15:27:04;34.10;94.00
37086;DHT22;23001;45.952;12.676;2023-08-21T15:30:05;34.10;94.20
37086;DHT22;23001;45.952;12.676;2023-08-21T15:33:13;34.20;94.00
37086;DHT22;23001;45.952;12.676;2023-08-21T15:35:45;34.10;93.30
37086;DHT22;23001;45.952;12.676;2023-08-21T15:41:06;34.00;93.20
37086;DHT22;23001;45.952;12.676;2023-08-21T15:43:42;34.10;94.20
37086;DHT22;23001;45.952;12.676;2023-08-21T15:46:11;34.00;93.80
37086;DHT22;23001;45.952;12.676;2023-08-21T15:48:46;34.00;94.00
37086;DHT22;23001;45.952;12.676;2023-08-21T15:51:12;34.00;93.90
37086;DHT22;23001;45.952;12.676;2023-08-21T15:53:44;34.10;93.20
37086;DHT22;23001;45.952;12.676;2023-08-21T15:56:16;34.00;93.50
37086;DHT22;23001;45.952;12.676;2023-08-21T15:58:51;34.00;93.30
37086;DHT22;23001;45.952;12.676;2023-08-21T16:02:02;33.90;94.10
37086;DHT22;23001;45.952;12.676;2023-08-21T16:04:29;33.90;93.80
37086;DHT22;23001;45.952;12.676;2023-08-21T16:06:58;33.90;93.80
37086;DHT22;23001;45.952;12.676;2023-08-21T16:09:24;33.70;93.70
37086;DHT22;23001;45.952;12.676;2023-08-21T16:15:02;33.70;94.70
37086;DHT22;23001;45.952;12.676;2023-08-21T16:17:51;33.70;94.30
37086;DHT22;23001;45.952;12.676;2023-08-21T16:20:17;33.70;94.10
37086;DHT22;23001;45.952;12.676;2023-08-21T16:22:43;33.60;94.40
37086;DHT22;23001;45.952;12.676;2023-08-21T16:41:08;33.40;94.40
37086;DHT22;23001;45.952;12.676;2023-08-21T16:43:53;33.40;94.60
37086;DHT22;23001;45.952;12.676;2023-08-21T16:46:19;33.40;94.80
37086;DHT22;23001;45.952;12.676;2023-08-21T16:49:03;33.40;94.90
37086;DHT22;23001;45.952;12.676;2023-08-21T16:52:07;33.40;94.60
37086;DHT22;23001;45.952;12.676;2023-08-21T16:54:35;33.40;94.60
37086;DHT22;23001;45.952;12.676;2023-08-21T16:57:01;33.30;94.10
37086;DHT22;23001;45.952;12.676;2023-08-21T16:59:27;33.30;94.20
37086;DHT22;23001;45.952;12.676;2023-08-21T17:02:06;33.30;94.20
37086;DHT22;23001;45.952;12.676;2023-08-21T17:04:33;33.20;93.90
37086;DHT22;23001;45.952;12.676;2023-08-21T17:11:12;33.10;94.00
37086;DHT22;23001;45.952;12.676;2023-08-21T17:17:21;33.00;94.10
37086;DHT22;23001;45.952;12.676;2023-08-21T17:20:52;33.00;94.20
37086;DHT22;23001;45.952;12.676;2023-08-21T17:59:57;32.00;97.70
37086;DHT22;23001;45.952;12.676;2023-08-21T18:10:09;31.80;98.50
37086;DHT22;23001;45.952;12.676;2023-08-21T18:12:53;31.70;99.00
37086;DHT22;23001;45.952;12.676;2023-08-21T18:15:53;31.60;99.30
37086;DHT22;23001;45.952;12.676;2023-08-21T18:18:29;31.60;99.10
37086;DHT22;23001;45.952;12.676;2023-08-21T18:21:17;31.50;99.00
37086;DHT22;23001;45.952;12.676;2023-08-21T18:24:26;31.50;99.20
37086;DHT22;23001;45.952;12.676;2023-08-21T18:30:33;31.30;99.90
37086;DHT22;23001;45.952;12.676;2023-08-21T18:43:38;30.70;99.90
37086;DHT22;23001;45.952;12.676;2023-08-21T18:46:33;30.70;99.90
37086;DHT22;23001;45.952;12.676;2023-08-21T18:49:08;30.80;99.90
37086;DHT22;23001;45.952;12.676;2023-08-21T18:51:48;30.70;99.90
37086;DHT22;23001;45.952;12.676;2023-08-21T18:58:04;30.50;99.90
37086;DHT22;23001;45.952;12.676;2023-08-21T19:01:34;30.60;99.90
37086;DHT22;23001;45.952;12.676;2023-08-21T19:14:52;30.40;99.90
37086;DHT22;23001;45.952;12.676;2023-08-21T19:52:15;30.00;99.90
37086;DHT22;23001;45.952;12.676;2023-08-21T19:54:53;29.80;99.90
37086;DHT22;23001;45.952;12.676;2023-08-21T19:57:24;29.80;99.90
37086;DHT22;23001;45.952;12.676;2023-08-21T20:00:15;29.70;99.90
37086;DHT22;23001;45.952;12.676;2023-08-21T20:02:44;29.70;99.90
37086;DHT22;23001;45.952;12.676;2023-08-21T20:05:21;29.70;99.90
37086;DHT22;23001;45.952;12.676;2023-08-21T20:07:52;29.70;99.90
37086;DHT22;23001;45.952;12.676;2023-08-21T20:10:24;29.70;99.90
37086;DHT22;23001;45.952;12.676;2023-08-21T20:13:09;29.60;99.90
37086;DHT22;23001;45.952;12.676;2023-08-21T20:15:38;29.50;99.90
37086;DHT22;23001;45.952;12.676;2023-08-21T20:18:21;29.50;99.90
37086;DHT22;23001;45.952;12.676;2023-08-21T20:20:53;29.50;99.90
37086;DHT22;23001;45.952;12.676;2023-08-21T20:30:02;29.30;99.90
37086;DHT22;23001;45.952;12.676;2023-08-21T20:35:13;29.30;99.90
37086;DHT22;23001;45.952;12.676;2023-08-21T20:38:26;29.20;99.90
37086;DHT22;23001;45.952;12.676;2023-08-21T22:20:27;27.60;99.90
37086;DHT22;23001;45.952;12.676;2023-08-21T23:03:29;27.50;99.90
37086;DHT22;23001;45.952;12.676;2023-08-21T23:27:55;27.40;99.90
